createdAt,value
2022-08-01T00:00:18.392Z,94.76
2022-08-01T00:10:21.612Z,95.99
2022-08-01T00:20:25.625Z,95.72
2022-08-01T00:30:28.269Z,95.77
2022-08-01T00:40:32.289Z,95.91
2022-08-01T00:50:35.668Z,95.92
2022-08-01T01:00:53.599Z,95.91
2022-08-01T01:11:05.578Z,95.81
2022-08-01T01:21:22.536Z,95.30
2022-08-01T01:31:30.697Z,96.13
2022-08-01T01:41:34.249Z,96.36
2022-08-01T01:51:40.034Z,95.58
2022-08-01T02:02:05.647Z,95.72
2022-08-01T02:12:09.200Z,95.55
2022-08-01T02:22:16.012Z,95.39
2022-08-01T02:32:26.470Z,95.36
2022-08-01T02:42:30.888Z,95.20
2022-08-01T02:52:35.155Z,94.69
2022-08-01T03:02:38.243Z,93.98
2022-08-01T03:12:43.266Z,94.43
2022-08-01T03:22:49.757Z,94.85
2022-08-01T03:32:53.968Z,95.37
2022-08-01T03:43:02.301Z,95.06
2022-08-01T03:53:10.604Z,94.42
2022-08-01T04:03:14.523Z,94.69
2022-08-01T04:13:18.497Z,95.07
2022-08-01T04:23:24.922Z,95.07
2022-08-01T04:33:31.692Z,94.56
2022-08-01T04:43:34.907Z,93.56
2022-08-01T04:53:38.898Z,93.41
2022-08-01T05:03:41.733Z,92.53
2022-08-01T05:13:45.761Z,91.46
2022-08-01T05:23:51.020Z,92.01
2022-08-01T05:33:55.041Z,90.97
2022-08-01T05:43:57.735Z,90.32
2022-08-01T05:54:02.080Z,90.48
2022-08-01T06:04:05.159Z,89.36
2022-08-01T06:14:09.311Z,88.72
2022-08-01T06:24:11.980Z,86.61
2022-08-01T06:34:16.539Z,87.32
2022-08-01T06:44:19.171Z,85.04
2022-08-01T06:54:23.156Z,84.03
2022-08-01T07:04:25.800Z,80.36
2022-08-01T07:14:29.805Z,78.34
2022-08-01T07:24:32.599Z,79.57
2022-08-01T07:34:39.073Z,76.84
2022-08-01T07:44:41.702Z,78.27
2022-08-01T07:54:49.262Z,76.46
2022-08-01T08:04:54.827Z,78.14
2022-08-01T08:15:00.083Z,75.64
2022-08-01T08:25:03.270Z,74.01
2022-08-01T08:35:08.559Z,74.47
2022-08-01T08:45:14.728Z,73.77
2022-08-01T08:55:20.036Z,72.48
2022-08-01T09:05:26.569Z,68.89
2022-08-01T09:15:49.131Z,62.59
2022-08-01T09:25:56.916Z,67.10
2022-08-01T09:36:03.389Z,68.65
2022-08-01T09:46:12.555Z,65.02
2022-08-01T09:56:16.872Z,62.86
2022-08-01T10:06:24.755Z,59.99
2022-08-01T10:16:30.574Z,59.65
2022-08-01T10:26:35.459Z,57.73
2022-08-01T10:36:44.548Z,56.59
2022-08-01T10:46:52.179Z,55.85
2022-08-01T10:57:01.764Z,55.04
2022-08-01T11:07:07.156Z,55.96
2022-08-01T11:17:37.237Z,53.30
2022-08-01T11:27:40.852Z,51.89
2022-08-01T11:37:44.941Z,48.56
2022-08-01T11:47:50.206Z,41.06
2022-08-01T11:58:01.517Z,38.71
2022-08-01T12:08:05.589Z,45.70
2022-08-01T12:18:11.270Z,40.46
2022-08-01T12:28:14.952Z,35.30
2022-08-01T12:38:27.897Z,37.07
2022-08-01T12:48:33.022Z,33.71
2022-08-01T12:58:37.652Z,38.27
2022-08-01T13:08:40.383Z,40.17
2022-08-01T13:18:50.804Z,38.67
2022-08-01T13:29:06.299Z,41.69
2022-08-01T13:39:45.651Z,39.95
2022-08-01T13:49:50.365Z,39.99
2022-08-01T13:59:54.474Z,40.80
2022-08-01T14:10:04.689Z,42.19
2022-08-01T14:20:21.507Z,44.72
2022-08-01T14:30:24.185Z,45.87
2022-08-01T14:40:28.469Z,44.70
2022-08-01T14:50:32.062Z,44.80
2022-08-01T15:00:36.355Z,44.70
2022-08-01T15:10:39.149Z,45.89
2022-08-01T15:20:43.231Z,46.41
2022-08-01T15:30:46.069Z,46.05
2022-08-01T15:40:50.121Z,46.63
2022-08-01T15:50:52.821Z,48.04
2022-08-01T16:00:56.901Z,47.91
2022-08-01T16:10:59.616Z,46.81
2022-08-01T16:21:03.943Z,47.49
2022-08-01T16:31:09.667Z,47.34
2022-08-01T16:41:20.717Z,48.57
2022-08-01T16:51:23.548Z,48.35
2022-08-01T17:01:57.943Z,48.33
2022-08-01T17:11:51.402Z,48.50
2022-08-01T17:21:55.551Z,49.56
2022-08-01T17:31:59.731Z,50.93
2022-08-01T17:42:03.783Z,50.97
2022-08-01T17:52:07.092Z,50.56
2022-08-01T18:02:11.925Z,51.75
2022-08-01T18:12:15.525Z,51.52
2022-08-01T18:22:33.918Z,52.84
2022-08-01T18:32:37.233Z,54.37
2022-08-01T18:42:41.476Z,55.90
2022-08-01T18:52:44.919Z,57.44
2022-08-01T19:02:49.135Z,59.08
2022-08-01T19:12:51.962Z,60.54
2022-08-01T19:22:57.077Z,61.73
2022-08-01T19:33:00.189Z,62.79
2022-08-01T19:43:04.586Z,64.71
2022-08-01T19:53:08.259Z,65.56
2022-08-01T20:03:15.883Z,66.55
2022-08-01T20:13:19.006Z,67.36
2022-08-01T20:23:27.215Z,67.94
2022-08-01T20:33:30.533Z,68.27
2022-08-01T20:43:36.334Z,68.71
2022-08-01T20:53:41.798Z,69.74
2022-08-01T21:04:04.457Z,70.93
2022-08-01T21:14:10.987Z,72.34
2022-08-01T21:24:18.347Z,73.09
2022-08-01T21:34:21.221Z,73.96
2022-08-01T21:44:28.781Z,74.66
2022-08-01T21:54:40.599Z,75.27
2022-08-01T22:04:53.251Z,75.39
2022-08-01T22:14:58.878Z,76.17
2022-08-01T22:25:03.249Z,76.77
2022-08-01T22:35:08.299Z,76.86
2022-08-01T22:45:17.026Z,77.59
2022-08-01T22:55:22.096Z,77.61
2022-08-01T23:05:27.475Z,77.22
2022-08-01T23:15:30.767Z,77.32
2022-08-01T23:25:34.893Z,77.99
2022-08-01T23:35:38.938Z,78.32
2022-08-01T23:46:03.572Z,78.77
2022-08-01T23:56:06.249Z,79.50
